createdAt,value
2023-05-19T00:02:13.117Z,75.97
2023-05-19T00:06:15.278Z,75.83
2023-05-19T00:10:10.643Z,75.50
2023-05-19T00:13:22.014Z,75.39
2023-05-19T00:16:58.675Z,75.13
2023-05-19T00:20:37.805Z,75.35
2023-05-19T00:24:13.801Z,75.41
2023-05-19T00:27:51.207Z,75.29
2023-05-19T00:31:29.322Z,75.22
2023-05-19T00:35:07.060Z,75.65
2023-05-19T00:38:44.455Z,75.60
2023-05-19T00:42:21.956Z,76.18
2023-05-19T00:46:00.618Z,76.30
2023-05-19T00:49:37.162Z,76.38
2023-05-19T00:53:18.335Z,76.01
2023-05-19T00:56:54.319Z,76.32
2023-05-19T01:00:31.060Z,76.62
2023-05-19T01:04:10.807Z,76.77
2023-05-19T01:07:47.316Z,76.70
2023-05-19T01:11:23.222Z,76.35
2023-05-19T01:15:02.184Z,76.66
2023-05-19T01:19:01.989Z,76.86
2023-05-19T01:22:32.301Z,76.44
2023-05-19T01:26:11.291Z,76.79
2023-05-19T01:29:48.905Z,76.94
2023-05-19T01:33:16.443Z,76.97
2023-05-19T01:36:50.027Z,77.17
2023-05-19T01:40:26.925Z,77.36
2023-05-19T01:44:02.719Z,77.93
2023-05-19T01:47:44.745Z,77.76
2023-05-19T01:51:18.279Z,77.46
2023-05-19T01:54:56.049Z,77.60
2023-05-19T01:58:46.803Z,78.09
2023-05-19T02:02:47.361Z,78.03
2023-05-19T02:06:17.990Z,78.16
2023-05-19T02:09:55.546Z,77.72
2023-05-19T02:13:08.548Z,77.37
2023-05-19T02:16:46.419Z,77.06
2023-05-19T02:20:19.361Z,77.15
2023-05-19T02:23:57.258Z,77.69
2023-05-19T02:27:39.287Z,77.81
2023-05-19T02:31:12.558Z,77.68
2023-05-19T02:34:50.206Z,78.13
2023-05-19T02:38:27.620Z,78.42
2023-05-19T02:42:05.613Z,78.12
2023-05-19T02:45:43.066Z,78.07
2023-05-19T02:49:20.989Z,78.21
2023-05-19T02:52:58.371Z,78.45
2023-05-19T02:56:36.043Z,78.25
2023-05-19T03:00:14.419Z,78.19
2023-05-19T03:03:51.558Z,78.46
2023-05-19T03:07:29.797Z,78.55
2023-05-19T03:11:06.894Z,78.77
2023-05-19T03:14:44.354Z,78.81
2023-05-19T03:18:24.654Z,78.85
2023-05-19T03:22:00.672Z,78.77
2023-05-19T03:25:37.441Z,78.85
2023-05-19T03:29:14.937Z,78.67
2023-05-19T03:32:53.340Z,78.55
2023-05-19T03:36:33.391Z,78.10
2023-05-19T03:40:09.003Z,78.13
2023-05-19T03:43:45.772Z,78.06
2023-05-19T03:47:23.428Z,78.17
2023-05-19T03:51:01.610Z,77.97
2023-05-19T03:54:39.693Z,77.71
2023-05-19T03:58:16.653Z,77.52
2023-05-19T04:01:54.845Z,77.71
2023-05-19T04:05:32.264Z,77.67
2023-05-19T04:09:14.284Z,77.83
2023-05-19T04:12:47.931Z,77.30
2023-05-19T04:16:25.584Z,77.75
2023-05-19T04:20:02.785Z,77.22
2023-05-19T04:23:40.448Z,77.38
2023-05-19T04:27:19.082Z,77.39
2023-05-19T04:30:58.849Z,77.15
2023-05-19T04:34:40.652Z,77.21
2023-05-19T04:38:12.259Z,77.02
2023-05-19T04:41:48.829Z,77.12
2023-05-19T04:45:26.876Z,77.41
2023-05-19T04:49:04.020Z,77.43
2023-05-19T04:52:42.637Z,77.31
2023-05-19T04:56:19.742Z,77.25
2023-05-19T05:00:00.557Z,77.35
2023-05-19T05:07:12.313Z,76.80
2023-05-19T05:10:52.753Z,76.69
2023-05-19T05:14:28.051Z,76.48
2023-05-19T05:18:05.935Z,76.23
2023-05-19T05:21:43.415Z,75.92
2023-05-19T05:25:21.276Z,75.54
2023-05-19T05:28:58.314Z,74.77
2023-05-19T05:32:36.348Z,74.91
2023-05-19T05:36:34.444Z,74.22
2023-05-19T05:39:51.604Z,72.92
2023-05-19T05:43:30.060Z,72.32
2023-05-19T05:47:07.186Z,71.49
2023-05-19T05:50:46.026Z,71.09
2023-05-19T05:54:25.619Z,70.99
2023-05-19T05:58:02.151Z,70.89
2023-05-19T06:01:37.530Z,70.97
2023-05-19T06:05:15.547Z,70.48
2023-05-19T06:08:52.956Z,69.99
2023-05-19T06:12:31.270Z,69.49
2023-05-19T06:16:08.220Z,69.69
2023-05-19T06:19:46.246Z,68.99
2023-05-19T06:23:26.976Z,68.71
2023-05-19T06:27:01.409Z,68.00
2023-05-19T06:30:38.636Z,67.05
2023-05-19T06:34:17.837Z,67.14
2023-05-19T06:37:55.924Z,67.60
2023-05-19T06:41:31.981Z,67.32
2023-05-19T06:45:10.033Z,66.26
2023-05-19T06:48:47.513Z,65.86
2023-05-19T06:52:25.099Z,65.62
2023-05-19T06:56:02.568Z,64.94
2023-05-19T06:59:43.725Z,63.34
2023-05-19T07:03:18.123Z,62.96
2023-05-19T07:06:55.785Z,62.17
2023-05-19T07:10:33.714Z,61.69
2023-05-19T07:14:11.064Z,61.18
2023-05-19T07:17:48.535Z,61.47
2023-05-19T07:21:26.269Z,60.64
2023-05-19T07:25:04.487Z,60.64
2023-05-19T07:28:43.503Z,60.42
2023-05-19T07:32:19.286Z,59.87
2023-05-19T07:35:57.152Z,59.01
2023-05-19T07:39:36.241Z,59.23
2023-05-19T07:43:14.442Z,58.56
2023-05-19T07:46:49.760Z,57.45
2023-05-19T07:50:27.788Z,56.83
2023-05-19T07:54:05.093Z,56.37
2023-05-19T07:57:43.152Z,55.53
2023-05-19T08:01:20.581Z,55.25
2023-05-19T08:04:58.650Z,55.72
2023-05-19T08:08:36.171Z,55.34
2023-05-19T08:12:14.402Z,55.68
2023-05-19T08:15:51.436Z,55.92
2023-05-19T08:19:29.482Z,55.77
2023-05-19T08:23:06.820Z,56.07
2023-05-19T08:26:44.615Z,56.01
2023-05-19T08:30:22.080Z,56.34
2023-05-19T08:34:00.037Z,57.12
2023-05-19T08:37:38.682Z,57.67
2023-05-19T08:41:16.939Z,57.49
2023-05-19T08:44:52.704Z,57.07
2023-05-19T08:48:33.940Z,57.10
2023-05-19T08:52:25.034Z,57.67
2023-05-19T08:56:10.654Z,57.95
2023-05-19T08:59:23.593Z,58.38
2023-05-19T09:03:17.429Z,58.86
2023-05-19T09:06:41.179Z,59.29
2023-05-19T09:10:16.812Z,60.26
2023-05-19T09:13:54.411Z,59.58
2023-05-19T09:17:34.107Z,59.67
2023-05-19T09:21:11.325Z,60.16
2023-05-19T09:24:47.825Z,60.52
2023-05-19T09:28:26.804Z,59.54
2023-05-19T09:32:05.400Z,59.13
2023-05-19T09:35:40.354Z,58.97
2023-05-19T09:39:19.964Z,58.91
2023-05-19T09:42:55.636Z,59.62
2023-05-19T09:46:36.125Z,59.13
2023-05-19T09:50:12.560Z,58.31
2023-05-19T09:53:48.794Z,58.18
2023-05-19T09:57:29.461Z,58.33
2023-05-19T10:01:05.148Z,58.76
2023-05-19T10:04:44.201Z,59.70
2023-05-19T10:08:19.930Z,59.63
2023-05-19T10:11:58.671Z,58.68
2023-05-19T10:15:46.709Z,58.89
2023-05-19T10:19:14.295Z,59.34
2023-05-19T10:22:50.331Z,59.28
2023-05-19T10:26:28.752Z,59.57
2023-05-19T10:30:15.657Z,59.63
2023-05-19T10:34:04.451Z,60.04
2023-05-19T10:37:41.849Z,61.11
2023-05-19T10:41:12.458Z,62.06
2023-05-19T10:45:04.348Z,60.96
2023-05-19T10:48:17.390Z,61.02
2023-05-19T10:51:57.689Z,61.79
2023-05-19T10:55:53.554Z,62.04
2023-05-19T10:59:06.987Z,62.74
2023-05-19T11:03:13.886Z,61.91
2023-05-19T11:06:30.233Z,61.95
2023-05-19T11:10:00.195Z,62.49
2023-05-19T11:13:37.683Z,63.20
2023-05-19T11:17:16.650Z,63.67
2023-05-19T11:21:01.202Z,63.92
2023-05-19T11:24:35.261Z,64.04
2023-05-19T11:28:08.641Z,64.21
2023-05-19T11:31:46.521Z,64.09
2023-05-19T11:35:23.497Z,64.10
2023-05-19T11:39:02.630Z,64.23
2023-05-19T11:42:39.436Z,64.62
2023-05-19T11:46:16.950Z,64.66
2023-05-19T11:49:56.792Z,64.89
2023-05-19T11:53:36.183Z,65.15
2023-05-19T11:57:11.055Z,64.64
2023-05-19T12:00:48.004Z,64.94
2023-05-19T12:04:25.525Z,65.14
2023-05-19T12:08:03.548Z,65.10
2023-05-19T12:11:40.944Z,65.00
2023-05-19T12:15:25.016Z,65.30
2023-05-19T12:19:15.142Z,65.70
2023-05-19T12:22:34.984Z,66.09
2023-05-19T12:26:12.001Z,66.16
2023-05-19T12:29:53.909Z,66.03
2023-05-19T12:33:26.812Z,66.36
2023-05-19T12:37:05.094Z,66.27
2023-05-19T12:40:45.598Z,66.58
2023-05-19T12:44:21.336Z,66.30
2023-05-19T12:47:57.821Z,66.42
2023-05-19T12:51:34.889Z,66.41
2023-05-19T12:55:14.486Z,66.54
2023-05-19T12:58:54.823Z,65.73
2023-05-19T13:02:28.388Z,65.52
2023-05-19T13:06:05.914Z,65.34
2023-05-19T13:09:43.126Z,65.16
2023-05-19T13:13:22.276Z,64.32
2023-05-19T13:16:58.886Z,64.10
2023-05-19T13:20:40.988Z,64.01
2023-05-19T13:24:14.292Z,64.05
2023-05-19T13:27:51.685Z,63.59
2023-05-19T13:31:29.740Z,63.68
2023-05-19T13:35:07.789Z,63.69
2023-05-19T13:38:44.755Z,64.09
2023-05-19T13:42:22.411Z,64.22
2023-05-19T13:46:00.139Z,64.10
2023-05-19T13:49:37.818Z,63.80
2023-05-19T13:53:15.283Z,63.86
2023-05-19T13:56:53.103Z,63.93
2023-05-19T14:00:32.526Z,64.27
2023-05-19T14:04:08.976Z,64.00
2023-05-19T14:07:47.069Z,64.74
2023-05-19T14:11:23.810Z,65.60
2023-05-19T14:15:02.200Z,65.36
2023-05-19T14:18:39.098Z,64.63
2023-05-19T14:22:17.453Z,64.59
2023-05-19T14:25:54.554Z,64.40
2023-05-19T14:29:32.292Z,64.38
2023-05-19T14:33:09.994Z,63.77
2023-05-19T14:36:48.913Z,64.01
2023-05-19T14:40:25.290Z,64.20
2023-05-19T14:44:02.865Z,64.59
2023-05-19T14:47:40.844Z,64.55
2023-05-19T14:51:18.176Z,64.40
2023-05-19T14:54:57.188Z,63.64
2023-05-19T14:58:33.744Z,63.39
2023-05-19T15:02:12.416Z,63.31
2023-05-19T15:05:49.794Z,62.50
2023-05-19T15:09:26.744Z,63.03
2023-05-19T15:13:05.098Z,62.96
2023-05-19T15:16:41.820Z,63.44
2023-05-19T15:20:20.198Z,64.02
2023-05-19T15:23:57.303Z,64.54
2023-05-19T15:27:36.749Z,64.82
2023-05-19T15:31:12.546Z,65.23
2023-05-19T15:34:50.190Z,65.86
2023-05-19T15:40:55.314Z,66.65
2023-05-19T15:42:05.500Z,66.58
2023-05-19T15:45:43.616Z,67.27
2023-05-19T15:49:20.754Z,67.90
2023-05-19T15:52:58.343Z,68.67
2023-05-19T15:56:36.493Z,69.23
2023-05-19T16:00:14.987Z,69.97
2023-05-19T16:03:51.924Z,70.67
2023-05-19T16:07:29.802Z,71.05
2023-05-19T16:11:07.281Z,71.71
2023-05-19T16:14:44.631Z,71.74
2023-05-19T16:18:22.914Z,72.07
2023-05-19T16:22:00.137Z,71.92
2023-05-19T16:25:37.531Z,71.92
2023-05-19T16:29:15.259Z,72.19
2023-05-19T16:32:56.404Z,72.60
2023-05-19T16:36:31.961Z,72.76
2023-05-19T16:40:10.228Z,73.24
2023-05-19T16:43:46.336Z,73.78
2023-05-19T16:47:23.767Z,73.84
2023-05-19T16:51:01.600Z,74.37
2023-05-19T16:54:38.885Z,74.54
2023-05-19T16:58:16.986Z,74.80
2023-05-19T17:01:54.907Z,74.91
2023-05-19T17:05:34.077Z,75.37
2023-05-19T17:09:09.579Z,75.78
2023-05-19T17:12:47.221Z,76.04
2023-05-19T17:16:24.855Z,76.29
2023-05-19T17:20:03.219Z,76.65
2023-05-19T17:23:40.492Z,76.52
2023-05-19T17:27:18.224Z,76.73
2023-05-19T17:30:55.951Z,76.88
2023-05-19T17:34:33.266Z,77.58
2023-05-19T17:38:11.376Z,77.35
2023-05-19T17:41:48.854Z,77.65
2023-05-19T17:45:26.886Z,77.91
2023-05-19T17:49:04.431Z,77.93
2023-05-19T17:52:42.066Z,78.42
2023-05-19T17:56:22.540Z,78.32
2023-05-19T17:59:57.298Z,78.69
2023-05-19T18:03:36.193Z,78.87
2023-05-19T18:07:14.424Z,78.69
2023-05-19T18:10:52.875Z,78.82
2023-05-19T18:14:28.006Z,78.38
2023-05-19T18:18:07.921Z,78.24
2023-05-19T18:21:42.803Z,78.36
2023-05-19T18:25:21.425Z,78.59
2023-05-19T18:29:02.623Z,78.94
2023-05-19T18:32:55.216Z,79.11
2023-05-19T18:36:15.507Z,79.27
2023-05-19T18:39:51.594Z,79.09
2023-05-19T18:43:30.645Z,78.94
2023-05-19T18:47:06.824Z,78.76
2023-05-19T18:50:45.055Z,78.65
2023-05-19T18:54:22.949Z,78.18
2023-05-19T18:58:00.246Z,78.33
2023-05-19T19:01:37.761Z,78.54
2023-05-19T19:05:15.829Z,78.70
2023-05-19T19:08:52.950Z,79.18
2023-05-19T19:12:31.255Z,79.48
2023-05-19T19:16:08.397Z,79.62
2023-05-19T19:19:46.430Z,79.81
2023-05-19T19:23:24.413Z,79.68
2023-05-19T19:27:01.860Z,79.88
2023-05-19T19:30:39.256Z,79.94
2023-05-19T19:34:19.862Z,79.62
2023-05-19T19:37:54.574Z,79.57
2023-05-19T19:41:33.667Z,79.43
2023-05-19T19:45:14.038Z,79.46
2023-05-19T19:48:47.470Z,79.18
2023-05-19T19:52:26.034Z,79.14
2023-05-19T19:56:04.519Z,78.42
2023-05-19T19:59:40.226Z,78.35
2023-05-19T20:03:18.191Z,78.11
2023-05-19T20:06:56.008Z,78.13
2023-05-19T20:10:33.961Z,78.11
2023-05-19T20:14:11.446Z,78.26
2023-05-19T20:17:49.171Z,78.07
2023-05-19T20:21:26.239Z,78.20
2023-05-19T20:25:05.048Z,78.21
2023-05-19T20:28:42.061Z,78.60
2023-05-19T20:32:19.811Z,78.86
2023-05-19T20:35:57.566Z,79.00
2023-05-19T20:39:34.996Z,78.96
2023-05-19T20:43:12.876Z,78.83
2023-05-19T20:46:50.716Z,79.10
2023-05-19T20:50:28.434Z,79.22
2023-05-19T20:54:07.579Z,79.09
2023-05-19T20:57:44.862Z,78.68
2023-05-19T21:01:21.024Z,78.44
2023-05-19T21:04:58.867Z,77.99
2023-05-19T21:08:36.305Z,78.16
2023-05-19T21:12:16.415Z,78.25
2023-05-19T21:15:51.809Z,78.07
2023-05-19T21:19:29.435Z,78.20
2023-05-19T21:23:06.932Z,78.17
2023-05-19T21:26:44.620Z,78.12
2023-05-19T21:30:23.906Z,78.29
2023-05-19T21:34:00.257Z,78.49
2023-05-19T21:37:38.136Z,78.40
2023-05-19T21:41:15.369Z,78.34
2023-05-19T21:44:52.896Z,78.19
2023-05-19T21:48:31.310Z,78.42
2023-05-19T21:52:08.721Z,78.36
2023-05-19T21:55:46.123Z,78.30
2023-05-19T21:59:24.937Z,78.46
2023-05-19T22:03:01.217Z,78.98
2023-05-19T22:06:39.346Z,78.66
2023-05-19T22:10:16.626Z,78.84
2023-05-19T22:13:57.125Z,78.70
2023-05-19T22:17:32.381Z,78.85
2023-05-19T22:21:10.537Z,78.82
2023-05-19T22:24:47.048Z,78.84
2023-05-19T22:28:25.217Z,78.61
2023-05-19T22:32:02.935Z,78.63
2023-05-19T22:35:40.383Z,78.55
2023-05-19T22:39:18.002Z,78.90
2023-05-19T22:42:55.781Z,78.88
2023-05-19T22:46:34.491Z,78.83
2023-05-19T22:50:12.534Z,78.92
2023-05-19T22:53:49.318Z,78.89
2023-05-19T22:57:26.648Z,78.94
2023-05-19T23:01:04.448Z,78.88
2023-05-19T23:04:42.980Z,79.13
2023-05-19T23:08:19.433Z,79.02
2023-05-19T23:11:57.186Z,79.29
2023-05-19T23:15:34.984Z,79.23
2023-05-19T23:19:12.429Z,79.23
2023-05-19T23:22:50.106Z,79.11
2023-05-19T23:26:27.683Z,79.37
2023-05-19T23:30:06.694Z,79.19
2023-05-19T23:33:43.427Z,79.51
2023-05-19T23:37:20.593Z,79.18
2023-05-19T23:40:58.434Z,79.10
2023-05-19T23:44:35.933Z,79.36
2023-05-19T23:48:13.852Z,79.26
2023-05-19T23:51:51.392Z,79.51
2023-05-19T23:55:29.235Z,79.68
2023-05-19T23:59:06.763Z,79.98
